Time;durP1;ratioP1;P1;durP2;ratioP2;P2;SDS_P1;SDS_P2;PMS_P1;PMS_P2;Temp;Humidity;BMP_temperature;BMP_pressure;BME280_temperature;BME280_humidity;BME280_pressure;Samples;Min_cycle;Max_cycle;Signal;HPM_P1;HPM_P2
2024/04/01 00:01:04;;;;;;;33.13;18.30;;;;;;;5.34;100.00;99023.75;4974944;28;20421;-80
2024/04/01 00:03:31;;;;;;;36.85;18.48;;;;;;;5.58;100.00;99014.88;4991520;28;20432;-80
2024/04/01 00:05:59;;;;;;;33.80;18.67;;;;;;;5.55;100.00;99031.63;4992537;28;20404;-81
2024/04/01 00:08:26;;;;;;;39.42;19.75;;;;;;;5.71;100.00;99026.88;4991869;28;20431;-80
2024/04/01 00:10:53;;;;;;;38.17;19.88;;;;;;;5.75;100.00;99031.41;4992401;28;20777;-81
2024/04/01 00:13:20;;;;;;;38.85;20.90;;;;;;;5.77;100.00;99031.94;4992228;28;20435;-81
2024/04/01 00:15:48;;;;;;;37.65;20.00;;;;;;;5.80;100.00;99027.84;4986069;28;21122;-81
2024/04/01 00:18:15;;;;;;;43.72;19.88;;;;;;;5.77;100.00;99034.63;4989906;28;21007;-80
2024/04/01 00:20:43;;;;;;;36.20;19.92;;;;;;;5.74;100.00;99027.09;4991833;28;20435;-81
2024/04/01 00:23:09;;;;;;;35.40;18.67;;;;;;;5.70;100.00;99030.66;4986326;28;20440;-81
2024/04/01 00:25:37;;;;;;;37.88;19.40;;;;;;;5.68;100.00;99040.94;4991290;28;20467;-81
2024/04/01 00:28:04;;;;;;;37.33;19.10;;;;;;;5.61;100.00;99046.69;4975102;28;20424;-81
2024/04/01 00:30:32;;;;;;;34.88;18.75;;;;;;;5.53;100.00;99047.31;4975509;28;21152;-81
2024/04/01 00:32:58;;;;;;;38.90;18.27;;;;;;;5.48;100.00;99060.84;4992492;28;20905;-80
2024/04/01 00:35:27;;;;;;;31.02;18.08;;;;;;;5.45;100.00;99067.63;4992847;28;21009;-80
2024/04/01 00:37:53;;;;;;;34.20;18.40;;;;;;;5.45;100.00;99052.25;4990237;28;20428;-80
2024/04/01 00:40:21;;;;;;;34.50;18.50;;;;;;;5.38;100.00;99045.56;4974328;28;20449;-81
2024/04/01 00:42:48;;;;;;;30.17;17.45;;;;;;;5.36;100.00;99035.06;4991978;28;20424;-80
2024/04/01 00:45:15;;;;;;;33.17;18.70;;;;;;;5.47;100.00;99024.16;4988663;28;20429;-81
2024/04/01 00:47:42;;;;;;;34.65;18.38;;;;;;;5.34;100.00;99020.25;4975010;28;20444;-81
2024/04/01 00:50:10;;;;;;;36.58;19.60;;;;;;;5.32;100.00;99042.13;4991765;28;20869;-81
2024/04/01 00:52:37;;;;;;;40.05;19.88;;;;;;;5.41;100.00;99051.22;4991002;28;20432;-80
2024/04/01 00:55:05;;;;;;;40.30;20.25;;;;;;;5.45;100.00;99046.03;4990034;28;20426;-81
2024/04/01 00:57:32;;;;;;;38.00;20.52;;;;;;;5.39;100.00;99037.19;4988346;28;20451;-81
2024/04/01 00:59:59;;;;;;;37.33;20.25;;;;;;;5.39;100.00;99022.91;4974691;28;20495;-81
2024/04/01 01:02:29;;;;;;;40.55;21.00;;;;;;;5.43;100.00;99013.94;4989652;28;20439;-81
2024/04/01 01:04:58;;;;;;;40.42;20.83;;;;;;;5.47;100.00;99024.16;4991628;28;20420;-81
2024/04/01 01:07:24;;;;;;;41.22;21.30;;;;;;;5.43;100.00;99024.75;4990833;28;20420;-81
2024/04/01 01:09:53;;;;;;;38.92;20.92;;;;;;;5.43;100.00;99040.13;4991274;28;20421;-81
2024/04/01 01:12:20;;;;;;;41.85;21.65;;;;;;;5.39;100.00;99034.50;4990742;28;20991;-81
2024/04/01 01:14:49;;;;;;;36.65;19.30;;;;;;;5.34;100.00;99036.44;4985276;28;20421;-81
2024/04/01 01:17:16;;;;;;;38.67;19.75;;;;;;;5.32;100.00;99042.13;4991357;28;20637;-81
2024/04/01 01:19:44;;;;;;;35.60;19.48;;;;;;;5.34;100.00;99050.72;4973172;28;20441;-81
2024/04/01 01:22:14;;;;;;;39.85;20.70;;;;;;;5.35;100.00;99049.66;4974250;28;21343;-81
2024/04/01 01:24:42;;;;;;;38.50;20.23;;;;;;;5.38;100.00;99064.47;4990335;28;20418;-81
2024/04/01 01:27:09;;;;;;;43.47;21.58;;;;;;;5.42;100.00;99062.81;4974666;28;20417;-81
2024/04/01 01:29:36;;;;;;;44.27;21.90;;;;;;;5.43;100.00;99067.13;4974598;28;20518;-81
2024/04/01 01:32:03;;;;;;;44.58;21.80;;;;;;;5.39;100.00;99072.25;4997062;28;20420;-81
2024/04/01 01:34:33;;;;;;;45.30;22.30;;;;;;;5.45;100.00;99084.63;4989785;28;20517;-81
2024/04/01 01:36:59;;;;;;;41.83;21.45;;;;;;;5.36;100.00;99077.41;4974229;28;20436;-80
2024/04/01 01:39:28;;;;;;;39.55;20.60;;;;;;;5.32;100.00;99076.38;4973169;28;20444;-81
2024/04/01 01:41:54;;;;;;;42.65;19.85;;;;;;;5.21;100.00;99064.91;4990190;28;20420;-81
2024/04/01 01:44:22;;;;;;;38.50;20.50;;;;;;;5.27;100.00;99075.38;4982067;28;20920;-81
2024/04/01 01:46:48;;;;;;;35.05;18.92;;;;;;;5.14;100.00;99067.09;4990641;28;20408;-81
2024/04/01 01:49:16;;;;;;;34.03;19.67;;;;;;;4.98;100.00;99074.53;4964477;28;20434;-81
2024/04/01 01:51:42;;;;;;;34.73;18.70;;;;;;;5.02;100.00;99070.19;4974052;28;20447;-80
2024/04/01 01:54:10;;;;;;;35.40;19.35;;;;;;;5.00;100.00;99075.88;4988868;28;20431;-80
2024/04/01 01:56:39;;;;;;;36.55;18.85;;;;;;;5.01;100.00;99068.56;4982221;28;20441;-80
2024/04/01 01:59:07;;;;;;;37.22;19.77;;;;;;;5.02;100.00;99060.19;4991447;28;20905;-81
2024/04/01 02:01:34;;;;;;;34.40;20.00;;;;;;;5.16;100.00;99057.63;4989669;28;20836;-81
2024/04/01 02:04:02;;;;;;;35.70;19.33;;;;;;;5.24;100.00;99048.94;4972848;28;20430;-81
2024/04/01 02:06:29;;;;;;;34.15;18.30;;;;;;;5.21;100.00;99038.72;4989357;28;20793;-81
2024/04/01 02:08:56;;;;;;;32.63;18.42;;;;;;;5.25;100.00;99037.06;4983153;28;20418;-81
2024/04/01 02:11:23;;;;;;;31.73;18.53;;;;;;;5.26;100.00;99025.19;4972677;28;21153;-81
2024/04/01 02:13:52;;;;;;;35.25;19.13;;;;;;;5.29;100.00;99034.63;4989396;28;20417;-81
2024/04/01 02:16:18;;;;;;;36.35;18.65;;;;;;;5.27;100.00;99031.38;5003709;28;20820;-81
2024/04/01 02:18:47;;;;;;;37.10;19.05;;;;;;;5.23;100.00;99022.25;4988719;28;20436;-80
2024/04/01 02:21:13;;;;;;;42.83;21.47;;;;;;;5.32;100.00;99023.25;4974130;28;20469;-81
2024/04/01 02:23:40;;;;;;;43.30;21.95;;;;;;;5.38;100.00;99029.38;4982804;28;20791;-81
2024/04/01 02:26:08;;;;;;;40.42;21.38;;;;;;;5.43;100.00;99024.75;4989036;28;20422;-81
2024/04/01 02:28:36;;;;;;;44.17;21.15;;;;;;;5.48;100.00;99028.47;4982277;28;20429;-80
2024/04/01 02:31:04;;;;;;;39.42;21.15;;;;;;;5.49;100.00;99016.59;5004812;28;20423;-81
2024/04/01 02:33:32;;;;;;;44.53;22.38;;;;;;;5.48;100.00;99007.69;4969566;28;20442;-80
2024/04/01 02:35:58;;;;;;;47.63;23.23;;;;;;;5.56;100.00;99009.75;4987064;28;20436;-80
2024/04/01 02:38:26;;;;;;;53.60;24.33;;;;;;;5.58;100.00;99010.28;4990007;28;20517;-81
2024/04/01 02:40:52;;;;;;;76.78;24.88;;;;;;;5.62;100.00;98999.69;4989178;28;20793;-80
2024/04/01 02:43:19;;;;;;;82.55;25.38;;;;;;;5.66;100.00;98998.03;4989741;28;20425;-81
2024/04/01 02:45:46;;;;;;;91.00;25.88;;;;;;;5.68;100.00;99006.66;4989233;28;20443;-80
2024/04/01 02:48:15;;;;;;;69.32;25.67;;;;;;;5.69;100.00;99004.75;4989573;28;21174;-81
2024/04/01 02:50:42;;;;;;;95.90;26.13;;;;;;;5.71;100.00;99006.06;4989559;28;20432;-80
2024/04/01 02:53:10;;;;;;;80.57;27.57;;;;;;;5.71;100.00;99002.59;4987727;28;20948;-80
2024/04/01 02:55:37;;;;;;;93.43;26.73;;;;;;;5.67;100.00;98999.66;4988916;28;20497;-80
2024/04/01 02:58:04;;;;;;;81.55;26.98;;;;;;;5.67;100.00;99007.75;4972983;28;20944;-81
2024/04/01 03:00:31;;;;;;;83.00;26.87;;;;;;;5.62;100.00;99014.00;4981601;28;20424;-80
2024/04/01 03:02:58;;;;;;;91.80;27.02;;;;;;;5.62;100.00;99011.31;4984474;28;20897;-80
2024/04/01 03:05:27;;;;;;;98.82;27.27;;;;;;;5.61;100.00;99017.78;4972444;28;20436;-80
2024/04/01 03:07:55;;;;;;;97.45;27.08;;;;;;;5.59;100.00;99009.19;4989398;28;20420;-80
2024/04/01 03:10:21;;;;;;;88.15;27.25;;;;;;;5.61;100.00;99011.59;4988489;28;20971;-80
2024/04/01 03:12:50;;;;;;;83.47;27.50;;;;;;;5.56;100.00;99012.44;4988039;28;20429;-80
2024/04/01 03:15:17;;;;;;;95.75;26.80;;;;;;;5.54;100.00;99011.16;4989128;28;20436;-81
2024/04/01 03:17:45;;;;;;;108.18;25.35;;;;;;;5.51;100.00;99012.53;4971444;28;20423;-80
2024/04/01 03:20:12;;;;;;;162.45;26.75;;;;;;;5.41;100.00;99005.34;4989206;28;20422;-80
2024/04/01 03:22:41;;;;;;;122.97;26.45;;;;;;;5.40;100.00;99005.63;4989606;28;20424;-80
2024/04/01 03:25:08;;;;;;;95.72;26.08;;;;;;;5.43;100.00;98992.38;4977289;28;20424;-80
2024/04/01 03:27:35;;;;;;;99.85;25.95;;;;;;;5.53;100.00;98975.25;4989108;28;20422;-80
2024/04/01 03:30:01;;;;;;;160.50;26.00;;;;;;;5.48;100.00;98967.22;4977068;28;20495;-80
2024/04/01 03:32:29;;;;;;;93.75;23.80;;;;;;;5.46;100.00;98961.31;4992605;28;20447;-80
2024/04/01 03:34:55;;;;;;;112.82;23.65;;;;;;;5.41;100.00;98958.66;4991898;28;20936;-80
2024/04/01 03:37:23;;;;;;;125.15;23.48;;;;;;;5.48;100.00;98961.81;4975689;28;20439;-80
2024/04/01 03:39:52;;;;;;;154.10;23.33;;;;;;;5.37;100.00;98966.56;4975594;28;20789;-81
2024/04/01 03:42:19;;;;;;;97.63;22.35;;;;;;;5.37;100.00;98957.63;4992107;28;20428;-81
2024/04/01 03:44:52;;;;;;;119.55;22.83;;;;;;;5.51;100.00;98952.34;4966320;28;20471;-81
2024/04/01 03:47:19;;;;;;;181.68;23.40;;;;;;;5.55;100.00;98948.81;4982384;28;21220;-80
2024/04/01 03:49:47;;;;;;;209.05;23.85;;;;;;;5.43;100.00;98945.72;4989298;28;20840;-80
2024/04/01 03:52:13;;;;;;;146.00;23.45;;;;;;;5.42;100.00;98941.41;4990427;28;20432;-80
2024/04/01 03:54:41;;;;;;;72.68;23.17;;;;;;;5.43;100.00;98937.63;4974247;28;20420;-80
2024/04/01 03:57:08;;;;;;;167.50;23.23;;;;;;;5.34;100.00;98933.94;4984842;28;20441;-80
2024/04/01 03:59:36;;;;;;;179.30;23.88;;;;;;;5.31;100.00;98932.63;4998867;28;20917;-80
2024/04/01 04:02:06;;;;;;;116.43;22.98;;;;;;;5.35;100.00;98927.47;4980962;28;20437;-80
2024/04/01 04:04:34;;;;;;;125.20;21.90;;;;;;;5.30;100.00;98927.50;4967900;28;20896;-80
2024/04/01 04:07:01;;;;;;;80.85;22.83;;;;;;;5.27;100.00;98926.19;4991033;28;20420;-81
2024/04/01 04:09:29;;;;;;;145.60;24.13;;;;;;;5.18;100.00;98917.13;4990006;28;20797;-80
2024/04/01 04:11:55;;;;;;;122.50;22.87;;;;;;;5.23;100.00;98917.06;4991221;28;21035;-80
2024/04/01 04:14:24;;;;;;;70.70;23.55;;;;;;;5.25;100.00;98918.41;4991609;28;21136;-80
2024/04/01 04:16:52;;;;;;;141.10;23.17;;;;;;;5.17;100.00;98908.25;4991189;28;20417;-81
2024/04/01 04:19:20;;;;;;;62.22;23.15;;;;;;;5.17;100.00;98902.06;4989929;28;20436;-81
2024/04/01 04:21:47;;;;;;;94.20;22.87;;;;;;;5.14;100.00;98906.13;4990352;28;20419;-81
2024/04/01 04:24:15;;;;;;;111.18;23.27;;;;;;;5.08;100.00;98904.56;4967513;28;20444;-81
2024/04/01 04:26:42;;;;;;;97.75;23.23;;;;;;;5.09;100.00;98898.88;4990183;28;20813;-80
2024/04/01 04:29:10;;;;;;;167.98;23.92;;;;;;;5.01;100.00;98907.59;4992164;28;20428;-80
2024/04/01 04:31:38;;;;;;;118.15;23.33;;;;;;;5.03;100.00;98902.72;4991508;28;20425;-81
2024/04/01 04:34:09;;;;;;;161.57;25.37;;;;;;;5.04;100.00;98898.13;4990140;28;20425;-80
2024/04/01 04:36:36;;;;;;;127.18;24.67;;;;;;;5.00;100.00;98892.53;4963907;28;20920;-81
2024/04/01 04:39:19;;;;;;;133.32;24.50;;;;;;;5.02;100.00;98895.72;4990763;28;20433;-81
2024/04/01 04:41:46;;;;;;;65.65;23.98;;;;;;;5.08;100.00;98899.16;4981284;28;20428;-80
2024/04/01 04:44:14;;;;;;;91.33;24.63;;;;;;;5.12;100.00;98894.81;4972661;28;20435;-80
2024/04/01 04:46:42;;;;;;;105.65;24.48;;;;;;;5.15;100.00;98894.25;4983978;28;20468;-81
2024/04/01 04:49:10;;;;;;;144.60;24.30;;;;;;;5.14;100.00;98886.44;4983979;28;20440;-80
2024/04/01 04:51:36;;;;;;;159.20;24.17;;;;;;;5.23;100.00;98882.84;4991551;28;20412;-80
2024/04/01 04:54:06;;;;;;;135.88;24.80;;;;;;;5.13;100.00;98891.03;4989162;28;20440;-80
2024/04/01 04:56:33;;;;;;;132.88;24.58;;;;;;;5.16;100.00;98873.47;4982636;28;20424;-81
2024/04/01 04:59:00;;;;;;;69.53;23.88;;;;;;;5.17;100.00;98883.19;4975859;28;21182;-80
2024/04/01 05:01:28;;;;;;;53.20;24.48;;;;;;;5.28;100.00;98885.44;4985200;28;20426;-80
2024/04/01 05:03:56;;;;;;;51.33;24.40;;;;;;;5.31;100.00;98889.47;4985262;28;20425;-81
2024/04/01 05:06:23;;;;;;;69.97;24.38;;;;;;;5.34;100.00;98896.19;4983130;28;20763;-80
2024/04/01 05:08:50;;;;;;;157.03;25.63;;;;;;;5.30;100.00;98890.53;4985642;28;20920;-81
2024/04/01 05:11:17;;;;;;;115.68;24.75;;;;;;;5.38;100.00;98894.50;4965264;28;20425;-80
2024/04/01 05:13:43;;;;;;;137.50;25.25;;;;;;;5.32;100.00;98906.44;4971789;28;20432;-80
2024/04/01 05:16:14;;;;;;;109.93;25.85;;;;;;;5.41;100.00;98902.84;4974169;28;20447;-80
2024/04/01 05:18:41;;;;;;;111.82;25.10;;;;;;;5.44;100.00;98898.72;4995705;28;20408;-80
2024/04/01 05:21:10;;;;;;;88.60;25.13;;;;;;;5.47;100.00;98903.56;4990300;28;20449;-81
2024/04/01 05:23:36;;;;;;;69.07;25.80;;;;;;;5.54;100.00;98903.22;4989745;28;20421;-80
2024/04/01 05:26:05;;;;;;;65.90;26.52;;;;;;;5.56;100.00;98898.31;4989647;28;20427;-80
2024/04/01 05:28:31;;;;;;;72.15;26.70;;;;;;;5.57;100.00;98895.34;4986011;28;20427;-80
2024/04/01 05:30:59;;;;;;;94.13;26.23;;;;;;;5.61;100.00;98890.16;4978615;28;20445;-81
2024/04/01 05:33:31;;;;;;;145.83;27.13;;;;;;;5.57;100.00;98875.66;4982828;28;21414;-80
2024/04/01 05:35:59;;;;;;;128.83;25.20;;;;;;;5.51;100.00;98866.81;4988583;28;20536;-80
2024/04/01 05:38:26;;;;;;;124.05;24.83;;;;;;;5.52;100.00;98849.53;4982984;28;20437;-81
2024/04/01 05:40:54;;;;;;;99.50;24.05;;;;;;;5.67;100.00;98840.41;4990731;28;20421;-80
2024/04/01 05:43:20;;;;;;;58.60;23.38;;;;;;;5.71;100.00;98846.03;4972887;28;20423;-80
2024/04/01 05:45:49;;;;;;;72.70;23.75;;;;;;;5.76;100.00;98849.47;4973974;28;20890;-81
2024/04/01 05:48:16;;;;;;;76.57;25.17;;;;;;;5.76;100.00;98857.56;4963638;28;20437;-80
2024/04/01 05:50:49;;;;;;;160.68;24.40;;;;;;;5.62;100.00;98854.78;4990138;28;20912;-80
2024/04/01 05:53:15;;;;;;;195.95;25.70;;;;;;;5.64;100.00;98857.19;4988304;28;20427;-80
2024/04/01 05:55:45;;;;;;;106.53;24.73;;;;;;;5.70;100.00;98866.03;4987240;28;20883;-81
2024/04/01 05:58:11;;;;;;;78.40;24.58;;;;;;;5.78;100.00;98874.25;4979341;28;20467;-81
2024/04/01 06:00:39;;;;;;;137.80;26.33;;;;;;;5.78;100.00;98868.84;4984898;28;20449;-80
2024/04/01 06:03:06;;;;;;;97.38;24.98;;;;;;;5.74;100.00;98867.84;4985856;28;21410;-80
2024/04/01 06:05:33;;;;;;;134.47;24.30;;;;;;;5.76;100.00;98872.97;4982111;28;20431;-80
2024/04/01 06:08:05;;;;;;;67.30;25.15;;;;;;;5.80;100.00;98871.28;4973452;28;20420;-80
2024/04/01 06:10:32;;;;;;;139.13;25.42;;;;;;;5.75;100.00;98874.84;4988035;28;20893;-80
2024/04/01 06:13:00;;;;;;;96.85;25.00;;;;;;;5.90;100.00;98883.84;4981643;28;20427;-80
2024/04/01 06:15:27;;;;;;;51.17;24.85;;;;;;;5.95;100.00;98883.72;4989078;28;20424;-80
2024/04/01 06:17:54;;;;;;;52.13;24.80;;;;;;;6.03;100.00;98876.91;4983183;28;20430;-81
2024/04/01 06:20:21;;;;;;;47.35;25.27;;;;;;;6.01;100.00;98879.09;4989559;28;20437;-80
2024/04/01 06:22:48;;;;;;;57.55;25.27;;;;;;;6.11;100.00;98879.72;4985025;28;20424;-80
2024/04/01 06:25:15;;;;;;;60.80;24.80;;;;;;;5.99;100.00;98875.88;4986424;28;20440;-80
2024/04/01 06:27:42;;;;;;;43.90;24.63;;;;;;;6.08;100.00;98874.13;4987014;28;20432;-80
2024/04/01 06:30:11;;;;;;;55.53;25.90;;;;;;;6.08;100.00;98864.13;4981420;28;20431;-80
2024/04/01 06:32:38;;;;;;;52.05;25.95;;;;;;;6.04;100.00;98863.09;4967924;28;20448;-80
2024/04/01 06:35:06;;;;;;;63.07;24.80;;;;;;;5.98;100.00;98863.47;4981376;28;20551;-80
2024/04/01 06:37:34;;;;;;;48.97;25.20;;;;;;;6.09;100.00;98870.31;4988674;28;20873;-80
2024/04/01 06:40:02;;;;;;;67.30;24.70;;;;;;;6.09;100.00;98870.31;4972409;28;20436;-80
2024/04/01 06:42:28;;;;;;;45.70;23.40;;;;;;;6.10;100.00;98875.44;4987967;28;20431;-80
2024/04/01 06:44:56;;;;;;;50.70;24.10;;;;;;;6.18;100.00;98879.34;4988888;28;20420;-80
2024/04/01 06:47:24;;;;;;;49.58;24.13;;;;;;;6.03;100.00;98869.59;4988885;28;20748;-80
2024/04/01 06:49:51;;;;;;;40.88;24.25;;;;;;;5.99;100.00;98873.97;4989002;28;20428;-79
2024/04/01 06:52:18;;;;;;;50.58;25.30;;;;;;;6.03;100.00;98872.28;4984890;28;20429;-80
2024/04/01 06:54:47;;;;;;;45.05;25.55;;;;;;;6.10;100.00;98883.56;4988539;28;20439;-80
2024/04/01 06:57:13;;;;;;;47.28;25.02;;;;;;;6.00;100.00;98875.59;4983447;28;20864;-79
2024/04/01 06:59:41;;;;;;;47.63;25.38;;;;;;;6.03;100.00;98880.41;4971675;28;20443;-82
2024/04/01 07:02:07;;;;;;;46.53;25.95;;;;;;;6.04;100.00;98887.41;4982493;28;20433;-80
2024/04/01 07:04:36;;;;;;;41.05;24.70;;;;;;;6.11;100.00;98895.16;4981950;28;20435;-79
2024/04/01 07:07:03;;;;;;;43.93;25.40;;;;;;;6.40;100.00;98892.25;4970991;28;20460;-80
2024/04/01 07:09:31;;;;;;;42.60;24.27;;;;;;;6.28;100.00;98891.91;4984933;28;20417;-80
2024/04/01 07:12:01;;;;;;;39.05;24.15;;;;;;;6.25;100.00;98882.47;4964548;28;20429;-80
2024/04/01 07:14:29;;;;;;;39.85;23.70;;;;;;;6.43;100.00;98886.22;4987543;28;20408;-80
2024/04/01 07:16:59;;;;;;;37.85;23.83;;;;;;;6.44;100.00;98889.75;4981080;28;20436;-81
2024/04/01 07:19:26;;;;;;;39.00;23.58;;;;;;;6.59;100.00;98878.69;4979771;28;20777;-80
2024/04/01 07:21:54;;;;;;;37.90;22.53;;;;;;;6.57;100.00;98878.19;4964801;28;20424;-80
2024/04/01 07:24:22;;;;;;;37.30;22.50;;;;;;;6.43;100.00;98880.03;4982638;28;20428;-81
2024/04/01 07:26:48;;;;;;;40.83;24.67;;;;;;;6.41;100.00;98884.94;4984192;28;20909;-81
2024/04/01 07:29:18;;;;;;;37.97;24.08;;;;;;;6.38;100.00;98894.44;4971203;28;20424;-81
2024/04/01 07:31:46;;;;;;;42.17;24.23;;;;;;;6.41;100.00;98899.25;4965219;28;20437;-81
2024/04/01 07:34:14;;;;;;;40.67;24.67;;;;;;;6.50;100.00;98912.09;4986645;28;20924;-80
2024/04/01 07:36:40;;;;;;;38.20;23.98;;;;;;;6.36;100.00;98917.44;4988038;28;20428;-80
2024/04/01 07:39:09;;;;;;;42.47;24.58;;;;;;;6.46;100.00;98909.16;4980026;28;21067;-81
2024/04/01 07:41:35;;;;;;;40.72;24.17;;;;;;;6.49;100.00;98918.59;5004512;28;20419;-80
2024/04/01 07:44:03;;;;;;;38.70;24.52;;;;;;;6.50;100.00;98912.09;4985430;28;20800;-81
2024/04/01 07:46:30;;;;;;;38.72;24.63;;;;;;;6.41;100.00;98903.88;4962246;28;21288;-80
2024/04/01 07:48:57;;;;;;;38.28;23.48;;;;;;;6.61;100.00;98913.50;4987427;28;20860;-80
2024/04/01 07:51:24;;;;;;;40.33;24.70;;;;;;;6.49;100.00;98889.69;4971596;28;20429;-80
2024/04/01 07:53:51;;;;;;;40.42;23.83;;;;;;;6.46;100.00;98890.25;4987671;28;21097;-80
2024/04/01 07:56:20;;;;;;;35.90;22.88;;;;;;;6.50;100.00;98893.16;4981941;28;20414;-80
2024/04/01 07:58:48;;;;;;;37.63;22.30;;;;;;;6.55;100.00;98883.06;4972179;28;20428;-80
2024/04/01 08:01:14;;;;;;;35.70;21.92;;;;;;;6.73;100.00;98880.59;4984027;28;20901;-80
2024/04/01 08:03:42;;;;;;;38.25;23.35;;;;;;;6.67;100.00;98881.78;4995064;28;20440;-80
2024/04/01 08:06:08;;;;;;;37.58;23.02;;;;;;;6.49;100.00;98870.75;4979231;28;21093;-81
2024/04/01 08:08:36;;;;;;;38.63;22.70;;;;;;;6.53;100.00;98885.28;4987759;28;20436;-81
2024/04/01 08:11:05;;;;;;;40.78;24.20;;;;;;;6.62;100.00;98890.78;4972849;28;20418;-80
2024/04/01 08:13:32;;;;;;;42.15;25.23;;;;;;;6.47;100.00;98884.53;4991412;28;20427;-80
2024/04/01 08:16:01;;;;;;;42.25;24.50;;;;;;;6.56;100.00;98891.97;4984517;28;20437;-80
2024/04/01 08:18:27;;;;;;;41.25;24.30;;;;;;;6.59;100.00;98870.56;4984620;28;20421;-80
2024/04/01 08:20:56;;;;;;;43.40;25.05;;;;;;;6.61;100.00;98860.25;4985198;28;20891;-81
2024/04/01 08:23:22;;;;;;;41.53;24.23;;;;;;;6.66;100.00;98862.06;4988119;28;20431;-80
2024/04/01 08:25:50;;;;;;;47.43;25.63;;;;;;;6.54;100.00;98878.75;4990632;28;20428;-81
2024/04/01 08:28:17;;;;;;;45.97;25.75;;;;;;;6.63;100.00;98870.78;4988883;28;20425;-83
2024/04/01 08:30:46;;;;;;;44.43;25.47;;;;;;;6.80;100.00;98859.38;4981256;28;20518;-81
2024/04/01 08:33:12;;;;;;;45.17;25.87;;;;;;;6.84;100.00;98854.19;4981317;28;20420;-81
2024/04/01 08:35:40;;;;;;;41.55;25.27;;;;;;;6.74;100.00;98866.78;4990059;28;20454;-81
2024/04/01 08:38:07;;;;;;;40.97;24.05;;;;;;;6.82;100.00;98873.38;4982691;28;20445;-82
2024/04/01 08:40:51;;;;;;;41.88;23.92;;;;;;;6.85;100.00;98862.00;4966323;28;20436;-81
2024/04/01 08:43:30;;;;;;;40.28;23.50;;;;;;;6.67;100.00;98847.47;4970734;28;20428;-81
2024/04/01 08:45:59;;;;;;;41.47;23.33;;;;;;;6.68;100.00;98851.75;4988611;28;20916;-81
2024/04/01 08:48:28;;;;;;;38.20;22.75;;;;;;;6.70;100.00;98846.84;4981048;28;20448;-81
2024/04/01 08:50:59;;;;;;;43.40;23.83;;;;;;;6.80;100.00;98840.44;4989769;28;20529;-80
2024/04/01 08:53:38;;;;;;;36.28;22.42;;;;;;;6.74;100.00;98834.34;4981655;28;20441;-81
2024/04/01 08:56:07;;;;;;;39.28;22.42;;;;;;;6.75;100.00;98822.44;4989991;28;20817;-81
2024/04/01 08:58:34;;;;;;;38.05;22.23;;;;;;;7.01;100.00;98823.84;4982582;28;20439;-81
2024/04/01 09:01:03;;;;;;;35.65;22.08;;;;;;;6.74;100.00;98823.53;4985237;28;20468;-81
2024/04/01 09:03:29;;;;;;;34.35;21.23;;;;;;;6.98;100.00;98852.28;4983782;28;20441;-81
2024/04/01 09:05:58;;;;;;;37.20;21.45;;;;;;;6.94;100.00;98876.41;4986435;28;20431;-81
2024/04/01 09:08:24;;;;;;;37.83;21.95;;;;;;;6.94;100.00;98870.19;4971677;28;20442;-81
2024/04/01 09:10:53;;;;;;;34.50;22.50;;;;;;;6.88;100.00;98885.72;4965173;28;20437;-81
2024/04/01 09:13:20;;;;;;;34.45;21.65;;;;;;;6.86;100.00;98890.63;4984257;28;20892;-81
2024/04/01 09:15:48;;;;;;;33.85;21.17;;;;;;;6.95;100.00;98890.75;4984932;28;20439;-83
2024/04/01 09:18:16;;;;;;;34.42;20.67;;;;;;;6.96;100.00;98911.25;4988717;28;20429;-81
2024/04/01 09:20:45;;;;;;;32.30;20.67;;;;;;;7.01;100.00;98894.94;4986067;28;20436;-81
2024/04/01 09:23:11;;;;;;;33.42;21.50;;;;;;;7.09;100.00;98898.88;4986101;28;20424;-81
2024/04/01 09:25:39;;;;;;;31.70;21.38;;;;;;;7.09;100.00;98906.97;4984547;28;20444;-81
2024/04/01 09:28:06;;;;;;;33.38;20.30;;;;;;;7.08;100.00;98894.53;4986995;28;20420;-81
2024/04/01 09:30:33;;;;;;;32.42;20.75;;;;;;;7.23;100.00;98896.94;4983316;28;21243;-81
2024/04/01 09:33:00;;;;;;;30.98;20.05;;;;;;;7.30;100.00;98900.03;4987226;28;20420;-81
2024/04/01 09:35:29;;;;;;;31.55;20.15;;;;;;;7.25;100.00;98883.94;4987441;28;20428;-81
2024/04/01 09:37:56;;;;;;;33.95;19.83;;;;;;;7.40;100.00;98882.00;4989181;28;20463;-82
2024/04/01 09:40:25;;;;;;;31.80;20.15;;;;;;;7.28;100.00;98869.78;4985056;28;20796;-81
2024/04/01 09:42:57;;;;;;;34.67;20.30;;;;;;;7.15;100.00;98874.13;4972227;28;20440;-81
2024/04/01 09:45:25;;;;;;;31.73;19.65;;;;;;;7.27;100.00;98853.88;4985270;28;20424;-81
2024/04/01 09:47:53;;;;;;;33.80;20.80;;;;;;;7.18;100.00;98851.06;4986154;28;20905;-81
2024/04/01 09:50:22;;;;;;;33.85;19.92;;;;;;;7.16;100.00;98842.44;4965324;28;20448;-81
2024/04/01 09:52:50;;;;;;;34.60;21.17;;;;;;;7.17;100.00;98844.06;4962341;28;21142;-81
2024/04/01 09:55:21;;;;;;;33.38;20.48;;;;;;;7.14;100.00;98826.53;4978563;28;20790;-81
2024/04/01 09:58:21;;;;;;;36.00;21.23;;;;;;;7.05;100.00;98827.53;4934664;28;20433;-80
2024/04/01 10:00:52;;;;;;;36.63;21.85;;;;;;;7.06;100.00;98831.84;4961553;28;20991;-80
2024/04/01 10:04:10;;;;;;;36.63;22.35;;;;;;;7.16;100.00;98812.69;4953199;28;20505;-80
2024/04/01 10:07:20;;;;;;;40.35;22.75;;;;;;;7.09;100.00;98820.41;4956569;28;20443;-80
2024/04/01 10:10:08;;;;;;;39.25;22.02;;;;;;;6.92;100.00;98802.91;4956521;28;20432;-80
2024/04/01 10:13:09;;;;;;;37.15;22.70;;;;;;;7.06;100.00;98797.47;4945675;28;20444;-81
2024/04/01 10:16:15;;;;;;;37.58;21.92;;;;;;;7.22;100.00;98797.16;4958290;28;20428;-81
2024/04/01 10:19:08;;;;;;;34.00;21.17;;;;;;;7.25;100.00;98785.72;4942617;28;20441;-81
2024/04/01 10:21:52;;;;;;;38.20;20.48;;;;;;;7.23;100.00;98777.91;4962031;28;20435;-81
2024/04/01 10:24:59;;;;;;;36.63;22.40;;;;;;;7.25;100.00;98775.72;4946106;28;20433;-80
2024/04/01 10:27:57;;;;;;;40.75;23.65;;;;;;;7.30;100.00;98763.97;4956249;28;20443;-81
2024/04/01 10:31:10;;;;;;;36.83;22.02;;;;;;;7.38;100.00;98768.66;4956671;28;20432;-81
2024/04/01 10:34:11;;;;;;;36.30;21.52;;;;;;;7.31;100.00;98760.16;4904103;28;20444;-81
2024/04/01 10:37:02;;;;;;;39.83;23.40;;;;;;;7.26;100.00;98755.63;4957712;28;20441;-81
2024/04/01 10:39:46;;;;;;;34.72;21.17;;;;;;;7.27;100.00;98743.72;4960089;28;20443;-81
2024/04/01 10:42:41;;;;;;;35.85;21.63;;;;;;;7.43;100.00;98738.78;4957619;28;20439;-81
2024/04/01 10:45:46;;;;;;;38.95;22.80;;;;;;;7.23;100.00;98734.63;4943807;28;20445;-80
2024/04/01 10:48:18;;;;;;;39.95;22.52;;;;;;;7.36;100.00;98727.56;4958536;28;21909;-81
2024/04/01 10:51:08;;;;;;;38.92;21.95;;;;;;;7.40;100.00;98727.75;4944026;28;20449;-81
2024/04/01 10:53:57;;;;;;;34.70;21.23;;;;;;;7.39;100.00;98729.66;4940387;28;20444;-81
2024/04/01 10:57:02;;;;;;;35.10;21.95;;;;;;;7.28;100.00;98729.09;4928006;28;20444;-82
2024/04/01 11:00:12;;;;;;;39.47;21.73;;;;;;;7.44;100.00;98709.78;4944338;28;20551;-80
2024/04/01 11:03:27;;;;;;;37.72;22.50;;;;;;;7.29;100.00;98700.13;4958846;28;20428;-81
2024/04/01 11:06:33;;;;;;;37.97;23.00;;;;;;;7.43;100.00;98700.88;4955552;28;20483;-81
2024/04/01 11:09:21;;;;;;;37.83;22.80;;;;;;;7.62;100.00;98692.56;4937592;28;20450;-82
2024/04/01 11:11:57;;;;;;;40.25;22.88;;;;;;;7.69;100.00;98689.41;4948362;28;20440;-82
2024/04/01 11:14:25;;;;;;;37.03;23.23;;;;;;;7.66;100.00;98680.03;4979081;28;21166;-82
2024/04/01 11:16:56;;;;;;;36.45;21.20;;;;;;;7.73;100.00;98676.84;4948802;28;20445;-81
2024/04/01 11:19:54;;;;;;;32.80;20.05;;;;;;;7.71;100.00;98672.88;4962451;28;20417;-81
2024/04/01 11:22:33;;;;;;;37.92;22.77;;;;;;;7.85;100.00;98657.31;4961865;28;20423;-81
2024/04/01 11:25:11;;;;;;;34.55;21.27;;;;;;;7.94;100.00;98669.00;4959207;28;20424;-82
2024/04/01 11:27:59;;;;;;;37.20;22.38;;;;;;;8.33;100.00;98661.97;4959229;28;20452;-81
2024/04/01 11:30:33;;;;;;;37.35;23.13;;;;;;;8.39;100.00;98672.69;4938915;28;20444;-81
2024/04/01 11:33:06;;;;;;;40.40;23.27;;;;;;;8.51;100.00;98667.47;4946743;28;20431;-81